Milk And Honey — WDF9265 — position and weather

sailwx.info

Track history (hours):
 
Tides and Currents Weather Stations Pressure Air Temp Water Temp Dewpoint Dewpoint Depression Visibility Wind Speed Wind Dir Waves Ship Positions

Milk And Honey

Owner: EKS Chartering Inc, Parsippany, NJ. More information available from US FCC via Universal Licensing System and Coast Guard Vessel Documentation Center.

Last reported at 2017-Sep-18 22:26 UTC. Time now 2017-Sep-22 01:09 UTC.
Position N 41°10' W 072°21'.

Length 38 m; draft 2.8 m.

Type: Pleasure craft. MMSI: 367503380.

Date/timePositionNaut miles runAvg speedWind from/ knotsBaromVisibWave heightAir tempDewpointWater temp
2017-Sep-18 22:26N 41°10' W 072°21'510.5
2017-Sep-18 22:00N 41°09' W 072°27'510.3
2017-Sep-18 21:29N 41°08' W 072°34'5511.4
2017-Sep-18 16:41N 40°53' W 073°44'310.3
2017-Sep-18 16:22N 40°50' W 073°46'3 7.1
2017-Sep-18 15:57N 40°48' W 073°49'4 8.9
2017-Sep-18 15:29N 40°48' W 073°55'3 5.4
2017-Sep-18 15:00N 40°46' W 073°57'2 4.7
2017-Sep-18 14:30N 40°43' W 073°58'3 5.1
2017-Sep-18 14:00N 40°43' W 074°01'2 3.9
2017-Sep-18 13:28N 40°45' W 074°01'0 0.0
2017-Sep-18 12:58N 40°45' W 074°01'0 0.0
2017-Sep-18 12:28N 40°45' W 074°01'0 0.0
2017-Sep-18 11:58N 40°45' W 074°01'0 0.0
2017-Sep-18 11:28N 40°45' W 074°01'0 0.0
2017-Sep-18 10:58N 40°45' W 074°01'0 0.0
2017-Sep-18 10:28N 40°45' W 074°01'0 0.0
2017-Sep-18 09:58N 40°45' W 074°01'0 0.0
2017-Sep-18 09:28N 40°45' W 074°01'0 0.0
2017-Sep-18 08:58N 40°45' W 074°01'0 0.0
2017-Sep-18 08:28N 40°45' W 074°01'0 0.0
2017-Sep-18 07:58N 40°45' W 074°01'0 0.0
2017-Sep-18 07:28N 40°45' W 074°01'0 0.0
2017-Sep-18 06:58N 40°45' W 074°01'0 0.0
2017-Sep-18 06:28N 40°45' W 074°01'0 0.0
2017-Sep-18 05:58N 40°45' W 074°01'0 0.0
2017-Sep-18 05:28N 40°45' W 074°01'0 0.0
2017-Sep-18 04:58N 40°45' W 074°01'0 0.0
2017-Sep-18 04:28N 40°45' W 074°01'0 0.1
2017-Sep-18 03:58N 40°45' W 074°01'0 0.1
2017-Sep-18 03:28N 40°45' W 074°01'0 0.0
2017-Sep-18 02:58N 40°45' W 074°01'0 0.0
2017-Sep-18 02:28N 40°45' W 074°01'0 0.0
2017-Sep-18 01:58N 40°45' W 074°01'0 0.0
2017-Sep-18 01:28N 40°45' W 074°01'0 0.0
2017-Sep-18 00:58N 40°45' W 074°01'0 0.0
2017-Sep-18 00:28N 40°45' W 074°01'0 0.0
2017-Sep-17 23:58N 40°45' W 074°01'0 0.0
2017-Sep-17 23:28N 40°45' W 074°01'0 0.0
2017-Sep-17 22:58N 40°45' W 074°01'0 0.2
2017-Sep-17 22:28N 40°45' W 074°01'0 0.2
2017-Sep-17 21:58N 40°45' W 074°01'0 0.0
2017-Sep-17 21:28N 40°45' W 074°01'0 0.0
2017-Sep-17 20:58N 40°45' W 074°01'0 0.0
2017-Sep-17 20:28N 40°45' W 074°01'0 0.1
2017-Sep-17 19:58N 40°45' W 074°01'0 0.1
2017-Sep-17 19:28N 40°45' W 074°01'0 0.0
2017-Sep-17 18:58N 40°45' W 074°01'0 0.0
2017-Sep-17 18:28N 40°45' W 074°01'0 0.0
2017-Sep-17 18:01N 40°45' W 074°01'0 0.0
2017-Sep-17 17:31N 40°45' W 074°01'0 0.0
2017-Sep-17 16:58N 40°45' W 074°01'0 0.0
2017-Sep-17 16:28N 40°45' W 074°01'0 0.0
2017-Sep-17 15:58N 40°45' W 074°01'0 0.0
2017-Sep-17 15:28N 40°45' W 074°01'0 0.0
2017-Sep-17 14:58N 40°45' W 074°01'0 0.0
2017-Sep-17 14:28N 40°45' W 074°01'0 0.0
2017-Sep-17 14:01N 40°45' W 074°01'0 0.0
2017-Sep-17 13:28N 40°45' W 074°01'0 0.0
2017-Sep-17 12:58N 40°45' W 074°01'0 0.0
2017-Sep-17 12:28N 40°45' W 074°01'0 0.0
2017-Sep-17 11:58N 40°45' W 074°01'0 0.0
2017-Sep-17 11:28N 40°45' W 074°01'0 0.0
2017-Sep-17 10:58N 40°45' W 074°01'0 0.0
2017-Sep-17 10:28N 40°45' W 074°01'0 0.0
2017-Sep-17 09:58N 40°45' W 074°01'0 0.0
2017-Sep-17 09:28N 40°45' W 074°01'0 0.0
2017-Sep-17 08:58N 40°45' W 074°01'0 0.0
2017-Sep-17 08:28N 40°45' W 074°01'0 0.0
2017-Sep-17 07:58N 40°45' W 074°01'0 0.0
2017-Sep-17 07:30N 40°45' W 074°01'0 0.0
2017-Sep-17 07:00N 40°45' W 074°01'0 0.0
2017-Sep-17 06:28N 40°45' W 074°01'0 0.0
2017-Sep-17 06:00N 40°45' W 074°01'0 0.0
2017-Sep-17 05:31N 40°45' W 074°01'0 0.0
2017-Sep-17 04:58N 40°45' W 074°01'0 0.0
2017-Sep-17 04:31N 40°45' W 074°01'0 0.0
2017-Sep-17 03:58N 40°45' W 074°01'0 0.0
2017-Sep-17 03:28N 40°45' W 074°01'0 0.0
2017-Sep-17 02:58N 40°45' W 074°01'0 0.0
2017-Sep-17 02:28N 40°45' W 074°01'0 0.0
2017-Sep-17 01:58N 40°45' W 074°01'0 0.0
2017-Sep-17 01:28N 40°45' W 074°01'0 0.0
2017-Sep-17 01:00N 40°45' W 074°01'0 0.0
2017-Sep-17 00:30N 40°45' W 074°01'0 0.1
2017-Sep-17 00:01N 40°45' W 074°01'0 0.1
2017-Sep-16 23:31N 40°45' W 074°01'0 0.0
2017-Sep-16 23:00N 40°45' W 074°01'0 0.4
2017-Sep-16 22:30N 40°45' W 074°01'0 0.4
2017-Sep-16 22:00N 40°45' W 074°01'0 0.0
2017-Sep-16 21:30N 40°45' W 074°01'0 0.0
2017-Sep-16 21:00N 40°45' W 074°01'0 0.0
2017-Sep-16 20:30N 40°45' W 074°01'0 0.0
2017-Sep-16 20:01N 40°45' W 074°01'0 0.0
2017-Sep-16 19:30N 40°45' W 074°01'0 0.0
2017-Sep-16 19:01N 40°45' W 074°01'0 0.0
2017-Sep-16 18:31N 40°45' W 074°01'0 0.0
2017-Sep-16 18:00N 40°45' W 074°01'0 0.0
2017-Sep-16 17:30N 40°45' W 074°01'0 0.0
2017-Sep-16 17:00N 40°45' W 074°01'0 0.0
2017-Sep-16 16:30N 40°45' W 074°01'0 0.1
2017-Sep-16 16:00N 40°45' W 074°01'0 0.1
2017-Sep-16 15:30N 40°45' W 074°01'0 0.0
2017-Sep-16 15:00N 40°45' W 074°01'0 0.0
2017-Sep-16 14:30N 40°45' W 074°01'0 0.0
2017-Sep-16 14:00N 40°45' W 074°01'0 0.0
2017-Sep-16 13:30N 40°45' W 074°01'0 0.0
2017-Sep-16 13:01N 40°45' W 074°01'0 0.0
2017-Sep-16 12:30N 40°45' W 074°01'0 0.0
2017-Sep-16 12:00N 40°45' W 074°01'0 0.0
2017-Sep-16 11:30N 40°45' W 074°01'0 0.0
2017-Sep-16 11:00N 40°45' W 074°01'0 0.0
2017-Sep-16 10:31N 40°45' W 074°01'0 0.0
2017-Sep-16 10:00N 40°45' W 074°01'0 0.0
2017-Sep-16 09:30N 40°45' W 074°01'0 0.0
2017-Sep-16 09:00N 40°45' W 074°01'0 0.0
2017-Sep-16 08:30N 40°45' W 074°01'0 0.0
2017-Sep-16 08:00N 40°45' W 074°01'0 0.0
2017-Sep-16 07:30N 40°45' W 074°01'0 0.0
2017-Sep-16 07:00N 40°45' W 074°01'0 0.0
2017-Sep-16 06:30N 40°45' W 074°01'0 0.0
2017-Sep-16 06:00N 40°45' W 074°01'0 0.0
2017-Sep-16 05:30N 40°45' W 074°01'0 0.0
2017-Sep-16 05:00N 40°45' W 074°01'0 0.0
2017-Sep-16 04:30N 40°45' W 074°01'0 0.0
2017-Sep-16 04:00N 40°45' W 074°01'0 0.0
2017-Sep-16 03:30N 40°45' W 074°01'0 0.0
2017-Sep-16 03:00N 40°45' W 074°01'0 0.0
2017-Sep-16 02:30N 40°45' W 074°01'0 0.0
2017-Sep-16 02:00N 40°45' W 074°01'0 0.0
2017-Sep-16 01:30N 40°45' W 074°01'0 0.0
2017-Sep-16 01:00N 40°45' W 074°01'0 0.0
2017-Sep-16 00:30N 40°45' W 074°01'0 0.0
2017-Sep-16 00:00N 40°45' W 074°01'0 0.0
2017-Sep-15 23:30N 40°45' W 074°01'0 0.0
2017-Sep-15 23:00N 40°45' W 074°01'0 0.1
2017-Sep-15 22:30N 40°45' W 074°01'0 0.1
2017-Sep-15 22:00N 40°45' W 074°01'0 0.0
2017-Sep-15 21:30N 40°45' W 074°01'0 0.0
2017-Sep-15 21:00N 40°45' W 074°01'0 0.0
2017-Sep-15 20:30N 40°45' W 074°01'0 0.0
2017-Sep-15 20:00N 40°45' W 074°01'0 0.0
2017-Sep-15 19:30N 40°45' W 074°01'0 0.0
2017-Sep-15 19:00N 40°45' W 074°01'0 0.0
2017-Sep-15 18:30N 40°45' W 074°01'0 0.1
2017-Sep-15 18:00N 40°45' W 074°01'0 0.1
2017-Sep-15 17:30N 40°45' W 074°01'0 0.0
2017-Sep-15 17:00N 40°45' W 074°01'0 0.0
2017-Sep-15 16:30N 40°45' W 074°01'0 0.1
2017-Sep-15 16:00N 40°45' W 074°01'0 0.1
2017-Sep-15 15:30N 40°45' W 074°01'0 0.0
2017-Sep-15 15:00N 40°45' W 074°01'0 0.0
2017-Sep-15 14:30N 40°45' W 074°01'0 0.0
2017-Sep-15 14:00N 40°45' W 074°01'0 0.0
2017-Sep-15 13:30N 40°45' W 074°01'0 0.0
2017-Sep-15 13:00N 40°45' W 074°01'0 0.0
2017-Sep-15 12:30N 40°45' W 074°01'0 0.0
2017-Sep-15 12:00N 40°45' W 074°01'0 0.0
2017-Sep-15 11:30N 40°45' W 074°01'0 0.0
2017-Sep-15 11:00N 40°45' W 074°01'0 0.0
2017-Sep-15 10:30N 40°45' W 074°01'0 0.0
2017-Sep-15 10:00N 40°45' W 074°01'0 0.0
2017-Sep-15 09:30N 40°45' W 074°01'0 0.0
2017-Sep-15 09:00N 40°45' W 074°01'0 0.0
2017-Sep-15 08:30N 40°45' W 074°01'0 0.0
2017-Sep-15 08:00N 40°45' W 074°01'0 0.0
2017-Sep-15 07:30N 40°45' W 074°01'0 0.0
2017-Sep-15 07:00N 40°45' W 074°01'0 0.0
2017-Sep-15 06:30N 40°45' W 074°01'0 0.0
2017-Sep-15 06:00N 40°45' W 074°01'0 0.0
2017-Sep-15 05:30N 40°45' W 074°01'0 0.0
2017-Sep-15 05:00N 40°45' W 074°01'0 0.0
2017-Sep-15 04:30N 40°45' W 074°01'0 0.0
2017-Sep-15 04:00N 40°45' W 074°01'0 0.0
2017-Sep-15 03:30N 40°45' W 074°01'0 0.0
2017-Sep-15 03:00N 40°45' W 074°01'0 0.0
2017-Sep-15 02:30N 40°45' W 074°01'0 0.0
2017-Sep-15 02:00N 40°45' W 074°01'0 0.0
2017-Sep-15 01:30N 40°45' W 074°01'0 0.0
2017-Sep-15 01:00N 40°45' W 074°01'0 0.0
2017-Sep-15 00:30N 40°45' W 074°01'0 0.1
2017-Sep-15 00:00N 40°45' W 074°01'4 7.8
2017-Sep-14 23:30N 40°41' W 074°02'4 7.8
2017-Sep-14 23:00N 40°45' W 074°01'1 2.1
2017-Sep-14 22:30N 40°46' W 074°00'1 2.0
2017-Sep-14 22:00N 40°45' W 074°01'0 0.0
2017-Sep-14 21:30N 40°45' W 074°01'0 0.0
2017-Sep-14 21:01N 40°45' W 074°01'0 0.0
2017-Sep-14 20:30N 40°45' W 074°01'0 0.0
2017-Sep-14 20:00N 40°45' W 074°01'0 0.0
2017-Sep-14 19:30N 40°45' W 074°01'0 0.0
2017-Sep-14 19:00N 40°45' W 074°01'0 0.0
2017-Sep-14 18:30N 40°45' W 074°01'0 0.0
2017-Sep-14 18:00N 40°45' W 074°01'0 0.0
2017-Sep-14 17:24N 40°45' W 074°01'0 0.0
2017-Sep-14 17:00N 40°45' W 074°01'0 0.0
2017-Sep-14 16:30N 40°45' W 074°01'0 0.0
2017-Sep-14 16:00N 40°45' W 074°01'0 0.0
2017-Sep-14 15:30N 40°45' W 074°01'0 0.0
2017-Sep-14 15:00N 40°45' W 074°01'0 0.0
2017-Sep-14 14:30N 40°45' W 074°01'0 0.0
2017-Sep-14 14:00N 40°45' W 074°01'0 0.0
2017-Sep-14 13:30N 40°45' W 074°01'0 0.0
2017-Sep-14 13:00N 40°45' W 074°01'0 0.0
2017-Sep-14 12:30N 40°45' W 074°01'0 0.0
2017-Sep-14 12:00N 40°45' W 074°01'0 0.0
2017-Sep-14 11:30N 40°45' W 074°01'0 0.0
2017-Sep-14 11:00N 40°45' W 074°01'0 0.0
2017-Sep-14 10:30N 40°45' W 074°01'0 0.0
2017-Sep-14 10:00N 40°45' W 074°01'0 0.0
2017-Sep-14 09:29N 40°45' W 074°01'0 0.0
2017-Sep-14 08:59N 40°45' W 074°01'0 0.0
2017-Sep-14 08:29N 40°45' W 074°01'0 0.0
2017-Sep-14 07:59N 40°45' W 074°01'0 0.0
2017-Sep-14 07:29N 40°45' W 074°01'0 0.0
2017-Sep-14 06:59N 40°45' W 074°01'0 0.0
2017-Sep-14 06:29N 40°45' W 074°01'0 0.0
2017-Sep-14 05:59N 40°45' W 074°01'0 0.0
2017-Sep-14 05:29N 40°45' W 074°01'0 0.0
2017-Sep-14 04:59N 40°45' W 074°01'0 0.0
2017-Sep-14 04:29N 40°45' W 074°01'0 0.1
2017-Sep-14 03:59N 40°45' W 074°01'0 0.0
2017-Sep-14 03:23N 40°45' W 074°01'0 0.0
2017-Sep-14 02:59N 40°45' W 074°01'0 0.0
2017-Sep-14 02:29N 40°45' W 074°01'0 0.0
2017-Sep-14 01:59N 40°45' W 074°01'0 0.0
2017-Sep-14 01:29N 40°45' W 074°01'0 0.0
2017-Sep-14 00:59N 40°45' W 074°01'0 0.0
2017-Sep-14 00:29N 40°45' W 074°01'0 0.0
2017-Sep-14 00:00N 40°45' W 074°01'3 5.8
2017-Sep-13 23:30N 40°42' W 074°01'1 1.9
2017-Sep-13 23:00N 40°43' W 074°02'3 6.1
2017-Sep-13 22:30N 40°46' W 074°00'1 1.7
2017-Sep-13 21:58N 40°45' W 074°01'0 0.0
2017-Sep-13 21:28N 40°45' W 074°01'0 0.0
2017-Sep-13 20:58N 40°45' W 074°01'0 0.0
2017-Sep-13 20:28N 40°45' W 074°01'0 0.0
2017-Sep-13 20:00N 40°45' W 074°01'0 0.0
2017-Sep-13 19:30N 40°45' W 074°01'0 0.0
2017-Sep-13 18:54N 40°45' W 074°01'0 0.0
2017-Sep-13 18:30N 40°45' W 074°01'0 0.0
2017-Sep-13 18:00N 40°45' W 074°01'0 0.0
2017-Sep-13 17:30N 40°45' W 074°01'0 0.0
2017-Sep-13 17:00N 40°45' W 074°01'0 0.0
2017-Sep-13 16:30N 40°45' W 074°01'0 0.0
2017-Sep-13 16:00N 40°45' W 074°01'0 0.0
2017-Sep-13 15:30N 40°45' W 074°01'0 0.0
2017-Sep-13 15:00N 40°45' W 074°01'0 0.0
2017-Sep-13 14:30N 40°45' W 074°01'0 0.0
2017-Sep-13 14:00N 40°45' W 074°01'0 0.0
2017-Sep-13 13:30N 40°45' W 074°01'0 0.0
2017-Sep-13 13:00N 40°45' W 074°01'0 0.0
2017-Sep-13 12:30N 40°45' W 074°01'0 0.0
2017-Sep-13 12:00N 40°45' W 074°01'0 0.0
2017-Sep-13 11:30N 40°45' W 074°01'0 0.0
2017-Sep-13 11:00N 40°45' W 074°01'0 0.0
2017-Sep-13 10:30N 40°45' W 074°01'0 0.0
2017-Sep-13 10:00N 40°45' W 074°01'0 0.0
2017-Sep-13 09:30N 40°45' W 074°01'0 0.0
2017-Sep-13 09:00N 40°45' W 074°01'0 0.0
2017-Sep-13 08:30N 40°45' W 074°01'0 0.0
2017-Sep-13 08:00N 40°45' W 074°01'0 0.0
2017-Sep-13 07:30N 40°45' W 074°01'0 0.0
2017-Sep-13 07:00N 40°45' W 074°01'0 0.0
2017-Sep-13 06:30N 40°45' W 074°01'0 0.0
2017-Sep-13 06:00N 40°45' W 074°01'0 0.0
2017-Sep-13 05:30N 40°45' W 074°01'0 0.0
2017-Sep-13 05:00N 40°45' W 074°01'0 0.0
2017-Sep-13 04:30N 40°45' W 074°01'0 0.0
2017-Sep-13 04:00N 40°45' W 074°01'0 0.0
2017-Sep-13 03:30N 40°45' W 074°01'0 0.0
2017-Sep-13 03:00N 40°45' W 074°01'0 0.0
2017-Sep-13 02:30N 40°45' W 074°01'0 0.0
2017-Sep-13 02:00N 40°45' W 074°01'0 0.0
2017-Sep-13 01:30N 40°45' W 074°01'0 0.0
2017-Sep-13 01:00N 40°45' W 074°01'0 0.0
2017-Sep-13 00:30N 40°45' W 074°01'0 0.0
2017-Sep-13 00:00N 40°45' W 074°01'0 0.4
2017-Sep-12 23:30N 40°45' W 074°01'3 7.0
2017-Sep-12 23:01N 40°41' W 074°02'3 5.6
2017-Sep-12 22:31N 40°44' W 074°01'1 1.8
2017-Sep-12 21:59N 40°45' W 074°01'0 0.0
2017-Sep-12 21:29N 40°45' W 074°01'0 0.1
2017-Sep-12 20:58N 40°45' W 074°01'0 0.1
2017-Sep-12 20:28N 40°45' W 074°01'0 0.0
2017-Sep-12 19:59N 40°45' W 074°01'0 0.0
2017-Sep-12 19:28N 40°45' W 074°01'0 0.0
2017-Sep-12 18:55N 40°45' W 074°01'0 0.0
2017-Sep-12 18:29N 40°45' W 074°01'0 0.0
2017-Sep-12 17:58N 40°45' W 074°01'0 0.0
2017-Sep-12 17:28N 40°45' W 074°01'0 0.0
2017-Sep-12 16:58N 40°45' W 074°01'0 0.1
2017-Sep-12 16:28N 40°45' W 074°01'0 0.1
2017-Sep-12 15:58N 40°45' W 074°01'0 0.0
2017-Sep-12 15:28N 40°45' W 074°01'0 0.0
2017-Sep-12 14:58N 40°45' W 074°01'0 0.0
2017-Sep-12 14:28N 40°45' W 074°01'0 0.0
2017-Sep-12 13:58N 40°45' W 074°01'0 0.0
2017-Sep-12 13:28N 40°45' W 074°01'0 0.0
2017-Sep-12 12:58N 40°45' W 074°01'0 0.0
2017-Sep-12 12:28N 40°45' W 074°01'0 0.0
2017-Sep-12 11:58N 40°45' W 074°01'0 0.0
2017-Sep-12 11:28N 40°45' W 074°01'0 0.0
2017-Sep-12 10:58N 40°45' W 074°01'0 0.0
2017-Sep-12 10:28N 40°45' W 074°01'0 0.0
2017-Sep-12 09:58N 40°45' W 074°01'0 0.0
2017-Sep-12 09:28N 40°45' W 074°01'0 0.0
2017-Sep-12 08:58N 40°45' W 074°01'0 0.0
2017-Sep-12 08:28N 40°45' W 074°01'0 0.0
2017-Sep-12 07:58N 40°45' W 074°01'0 0.0
2017-Sep-12 07:28N 40°45' W 074°01'0 0.0
2017-Sep-12 06:58N 40°45' W 074°01'0 0.0
2017-Sep-12 06:28N 40°45' W 074°01'0 0.0
2017-Sep-12 05:58N 40°45' W 074°01'0 0.0
2017-Sep-12 05:28N 40°45' W 074°01'0 0.0
2017-Sep-12 04:58N 40°45' W 074°01'0 0.0
2017-Sep-12 04:28N 40°45' W 074°01'0 0.0
2017-Sep-12 03:58N 40°45' W 074°01'0 0.0
2017-Sep-12 03:28N 40°45' W 074°01'0 0.0
2017-Sep-12 02:58N 40°45' W 074°01'0 0.0
2017-Sep-12 02:28N 40°45' W 074°01'0 0.0
2017-Sep-12 01:58N 40°45' W 074°01'0 0.0
2017-Sep-12 01:28N 40°45' W 074°01'0 0.0
2017-Sep-12 00:58N 40°45' W 074°01'0 0.0
2017-Sep-12 00:28N 40°45' W 074°01'0 0.0
2017-Sep-11 23:58N 40°45' W 074°01'0 0.0
2017-Sep-11 23:28N 40°45' W 074°01'0 0.0
2017-Sep-11 22:58N 40°45' W 074°01'0 0.0
2017-Sep-11 22:28N 40°45' W 074°01'0 0.0
2017-Sep-11 21:58N 40°45' W 074°01'0 0.0
2017-Sep-11 21:28N 40°45' W 074°01'0 0.1
2017-Sep-11 20:58N 40°45' W 074°01'0 0.1
2017-Sep-11 20:28N 40°45' W 074°01'0 0.0
2017-Sep-11 19:58N 40°45' W 074°01'0 0.0
2017-Sep-11 19:28N 40°45' W 074°01'0 0.1
2017-Sep-11 18:58N 40°45' W 074°01'0 0.0
2017-Sep-11 18:28N 40°45' W 074°01'0 0.0
2017-Sep-11 17:58N 40°45' W 074°01'0 0.0
2017-Sep-11 17:28N 40°45' W 074°01'0 0.0
2017-Sep-11 16:52N 40°45' W 074°01'0 0.0
2017-Sep-11 16:28N 40°45' W 074°01'0 0.0
2017-Sep-11 15:58N 40°45' W 074°01'0 0.0
2017-Sep-11 15:28N 40°45' W 074°01'0 0.0
2017-Sep-11 14:52N 40°45' W 074°01'0 0.0
2017-Sep-11 14:10N 40°45' W 074°01'0 0.0
2017-Sep-11 13:58N 40°45' W 074°01'0 0.0
2017-Sep-11 12:55N 40°45' W 074°01'0 0.0
2017-Sep-11 12:28N 40°45' W 074°01'0 0.0
2017-Sep-11 11:58N 40°45' W 074°01'0 0.0
2017-Sep-11 11:28N 40°45' W 074°01'0 0.0
2017-Sep-11 10:46N 40°45' W 074°01'0 0.0
2017-Sep-11 10:28N 40°45' W 074°01'0 0.0
2017-Sep-11 09:58N 40°45' W 074°01'0 0.0
2017-Sep-11 09:28N 40°45' W 074°01'0 0.0
2017-Sep-11 08:58N 40°45' W 074°01'0 0.0
2017-Sep-11 08:28N 40°45' W 074°01'0 0.0
2017-Sep-11 07:58N 40°45' W 074°01'0 0.0
2017-Sep-11 07:28N 40°45' W 074°01'0 0.0
2017-Sep-11 06:52N 40°45' W 074°01'0 0.0
2017-Sep-11 06:28N 40°45' W 074°01'0 0.0
2017-Sep-11 05:58N 40°45' W 074°01'0 0.0
2017-Sep-11 05:28N 40°45' W 074°01'0 0.0
2017-Sep-11 04:58N 40°45' W 074°01'0 0.0
2017-Sep-11 04:28N 40°45' W 074°01'0 0.0
2017-Sep-11 03:58N 40°45' W 074°01'0 0.0
2017-Sep-11 03:28N 40°45' W 074°01'0 0.0
2017-Sep-11 02:58N 40°45' W 074°01'0 0.0
2017-Sep-11 02:28N 40°45' W 074°01'0 0.0
2017-Sep-11 01:58N 40°45' W 074°01'0 0.1
2017-Sep-11 01:30N 40°45' W 074°01'0 0.0
2017-Sep-11 01:00N 40°45' W 074°01'0 0.0
2017-Sep-11 00:30N 40°45' W 074°01'0 0.0
2017-Sep-11 00:00N 40°45' W 074°01'0 0.0
2017-Sep-10 23:30N 40°45' W 074°01'0 0.0
2017-Sep-10 23:00N 40°45' W 074°01'0 0.1
2017-Sep-10 22:30N 40°45' W 074°01'0 0.1
2017-Sep-10 22:00N 40°45' W 074°01'0 0.0
2017-Sep-10 21:30N 40°45' W 074°01'0 0.0
2017-Sep-10 21:00N 40°45' W 074°01'0 0.0
2017-Sep-10 20:30N 40°45' W 074°01'0 0.0
2017-Sep-10 20:00N 40°45' W 074°01'0 0.0
2017-Sep-10 19:30N 40°45' W 074°01'0 0.0
2017-Sep-10 19:00N 40°45' W 074°01'0 0.0
2017-Sep-10 18:30N 40°45' W 074°01'0 0.0
2017-Sep-10 18:00N 40°45' W 074°01'0 0.0
2017-Sep-10 17:30N 40°45' W 074°01'0 0.0
2017-Sep-10 17:00N 40°45' W 074°01'0 0.0
2017-Sep-10 16:30N 40°45' W 074°01'0 0.0
2017-Sep-10 16:00N 40°45' W 074°01'0 0.0
2017-Sep-10 15:30N 40°45' W 074°01'0 0.0
2017-Sep-10 15:00N 40°45' W 074°01'0 0.0
2017-Sep-10 14:00N 40°45' W 074°01'0 0.0
2017-Sep-10 13:30N 40°45' W 074°01'0 0.0
2017-Sep-10 13:00N 40°45' W 074°01'0 0.0
2017-Sep-10 12:30N 40°45' W 074°01'0 0.0
2017-Sep-10 12:00N 40°45' W 074°01'0 0.0
2017-Sep-10 11:30N 40°45' W 074°01'0 0.0
2017-Sep-10 11:00N 40°45' W 074°01'0 0.0
2017-Sep-10 10:30N 40°45' W 074°01'0 0.0
2017-Sep-10 10:00N 40°45' W 074°01'0 0.0
2017-Sep-10 09:30N 40°45' W 074°01'0 0.0
2017-Sep-10 09:00N 40°45' W 074°01'0 0.0
2017-Sep-10 08:30N 40°45' W 074°01'0 0.0
2017-Sep-10 08:00N 40°45' W 074°01'0 0.0
2017-Sep-10 07:30N 40°45' W 074°01'0 0.0
2017-Sep-10 07:00N 40°45' W 074°01'0 0.0
2017-Sep-10 06:30N 40°45' W 074°01'0 0.0
2017-Sep-10 06:00N 40°45' W 074°01'0 0.0
2017-Sep-10 05:30N 40°45' W 074°01'0 0.0
2017-Sep-10 05:00N 40°45' W 074°01'0 0.1
2017-Sep-10 04:30N 40°45' W 074°01'0 0.1
2017-Sep-10 04:00N 40°45' W 074°01'0 0.0
2017-Sep-10 03:30N 40°45' W 074°01'0 0.0
2017-Sep-10 03:00N 40°45' W 074°01'0 0.0
2017-Sep-10 02:30N 40°45' W 074°01'0 0.0
2017-Sep-10 02:00N 40°45' W 074°01'0 0.0
2017-Sep-10 01:30N 40°45' W 074°01'0 0.0
2017-Sep-10 01:00N 40°45' W 074°01'0 0.0
2017-Sep-10 00:30N 40°45' W 074°01'0 0.0
2017-Sep-10 00:00N 40°45' W 074°01'0 0.0
2017-Sep-09 23:30N 40°45' W 074°01'0 0.0
2017-Sep-09 23:00N 40°45' W 074°01'0 0.0
2017-Sep-09 22:30N 40°45' W 074°01'0 0.0
2017-Sep-09 22:00N 40°45' W 074°01'0 0.0
2017-Sep-09 21:30N 40°45' W 074°01'0 0.0
2017-Sep-09 21:00N 40°45' W 074°01'0 0.0
2017-Sep-09 20:30N 40°45' W 074°01'0 0.0
2017-Sep-09 19:59N 40°45' W 074°01'0 0.0
2017-Sep-09 19:29N 40°45' W 074°01'0 0.0
2017-Sep-09 18:59N 40°45' W 074°01'0 0.0
2017-Sep-09 18:29N 40°45' W 074°01'0 0.0
2017-Sep-09 17:59N 40°45' W 074°01'0 0.0
2017-Sep-09 17:29N 40°45' W 074°01'0 0.0
2017-Sep-09 16:59N 40°45' W 074°01'0 0.0
2017-Sep-09 16:29N 40°45' W 074°01'0 0.0
2017-Sep-09 15:56N 40°45' W 074°01'0 0.0
2017-Sep-09 15:29N 40°45' W 074°01'0 0.0
2017-Sep-09 14:59N 40°45' W 074°01'0 0.0
2017-Sep-09 14:29N 40°45' W 074°01'0 0.0
2017-Sep-09 13:59N 40°45' W 074°01'0 0.0
2017-Sep-09 13:29N 40°45' W 074°01'0 0.0
2017-Sep-09 12:59N 40°45' W 074°01'0 0.0
2017-Sep-09 12:29N 40°45' W 074°01'0 0.0
2017-Sep-09 11:59N 40°45' W 074°01'0 0.0
2017-Sep-09 11:29N 40°45' W 074°01'0 0.0
2017-Sep-09 10:59N 40°45' W 074°01'0 0.0
2017-Sep-09 10:29N 40°45' W 074°01'0 0.0
2017-Sep-09 09:59N 40°45' W 074°01'0 0.0
2017-Sep-09 09:29N 40°45' W 074°01'0 0.0
2017-Sep-09 08:59N 40°45' W 074°01'0 0.0
2017-Sep-09 08:29N 40°45' W 074°01'0 0.0
2017-Sep-09 07:59N 40°45' W 074°01'0 0.0
2017-Sep-09 07:29N 40°45' W 074°01'0 0.0
2017-Sep-09 06:59N 40°45' W 074°01'0 0.0
2017-Sep-09 06:29N 40°45' W 074°01'0 0.0
2017-Sep-09 05:59N 40°45' W 074°01'0 0.0
2017-Sep-09 05:29N 40°45' W 074°01'0 0.0
2017-Sep-09 04:59N 40°45' W 074°01'0 0.0
2017-Sep-09 04:29N 40°45' W 074°01'0 0.0
2017-Sep-09 03:59N 40°45' W 074°01'0 0.0
2017-Sep-09 03:29N 40°45' W 074°01'0 0.0
2017-Sep-09 02:59N 40°45' W 074°01'0 0.0
2017-Sep-09 02:29N 40°45' W 074°01'0 0.0
2017-Sep-09 01:59N 40°45' W 074°01'0 0.0
2017-Sep-09 01:29N 40°45' W 074°01'0 0.0
2017-Sep-09 00:59N 40°45' W 074°01'0 0.0
2017-Sep-09 00:29N 40°45' W 074°01'0 0.0
2017-Sep-08 23:59N 40°45' W 074°01'0 0.0
2017-Sep-08 23:29N 40°45' W 074°01'0 0.3
2017-Sep-08 22:59N 40°45' W 074°01'0 0.3
2017-Sep-08 22:29N 40°45' W 074°01'  
Track history (hours):
 
Tides and Currents Weather Stations Pressure Air Temp Water Temp Dewpoint Dewpoint Depression Visibility Wind Speed Wind Dir Waves Ship Positions

Milk And Honey

Owner: EKS Chartering Inc, Parsippany, NJ. More information available from US FCC via Universal Licensing System and Coast Guard Vessel Documentation Center.

Last reported at 2017-Sep-18 22:26 UTC. Time now 2017-Sep-22 01:09 UTC.
Position N 41°10' W 072°21'.

Length 38 m; draft 2.8 m.

Type: Pleasure craft. MMSI: 367503380.

Date/timePositionNaut miles runAvg speedWind from/ knotsBaromVisibWave heightAir tempDewpointWater temp
2017-Sep-18 22:26N 41°10' W 072°21'510.5
2017-Sep-18 22:00N 41°09' W 072°27'510.3
2017-Sep-18 21:29N 41°08' W 072°34'5511.4
2017-Sep-18 16:41N 40°53' W 073°44'310.3
2017-Sep-18 16:22N 40°50' W 073°46'3 7.1
2017-Sep-18 15:57N 40°48' W 073°49'4 8.9
2017-Sep-18 15:29N 40°48' W 073°55'3 5.4
2017-Sep-18 15:00N 40°46' W 073°57'2 4.7
2017-Sep-18 14:30N 40°43' W 073°58'3 5.1
2017-Sep-18 14:00N 40°43' W 074°01'2 3.9
2017-Sep-18 13:28N 40°45' W 074°01'0 0.0
2017-Sep-18 12:58N 40°45' W 074°01'0 0.0
2017-Sep-18 12:28N 40°45' W 074°01'0 0.0
2017-Sep-18 11:58N 40°45' W 074°01'0 0.0
2017-Sep-18 11:28N 40°45' W 074°01'0 0.0
2017-Sep-18 10:58N 40°45' W 074°01'0 0.0
2017-Sep-18 10:28N 40°45' W 074°01'0 0.0
2017-Sep-18 09:58N 40°45' W 074°01'0 0.0
2017-Sep-18 09:28N 40°45' W 074°01'0 0.0
2017-Sep-18 08:58N 40°45' W 074°01'0 0.0
2017-Sep-18 08:28N 40°45' W 074°01'0 0.0
2017-Sep-18 07:58N 40°45' W 074°01'0 0.0
2017-Sep-18 07:28N 40°45' W 074°01'0 0.0
2017-Sep-18 06:58N 40°45' W 074°01'0 0.0
2017-Sep-18 06:28N 40°45' W 074°01'0 0.0
2017-Sep-18 05:58N 40°45' W 074°01'0 0.0
2017-Sep-18 05:28N 40°45' W 074°01'0 0.0
2017-Sep-18 04:58N 40°45' W 074°01'0 0.0
2017-Sep-18 04:28N 40°45' W 074°01'0 0.1
2017-Sep-18 03:58N 40°45' W 074°01'0 0.1
2017-Sep-18 03:28N 40°45' W 074°01'0 0.0
2017-Sep-18 02:58N 40°45' W 074°01'0 0.0
2017-Sep-18 02:28N 40°45' W 074°01'0 0.0
2017-Sep-18 01:58N 40°45' W 074°01'0 0.0
2017-Sep-18 01:28N 40°45' W 074°01'0 0.0
2017-Sep-18 00:58N 40°45' W 074°01'0 0.0
2017-Sep-18 00:28N 40°45' W 074°01'0 0.0
2017-Sep-17 23:58N 40°45' W 074°01'0 0.0
2017-Sep-17 23:28N 40°45' W 074°01'0 0.0
2017-Sep-17 22:58N 40°45' W 074°01'0 0.2
2017-Sep-17 22:28N 40°45' W 074°01'0 0.2
2017-Sep-17 21:58N 40°45' W 074°01'0 0.0
2017-Sep-17 21:28N 40°45' W 074°01'0 0.0
2017-Sep-17 20:58N 40°45' W 074°01'0 0.0
2017-Sep-17 20:28N 40°45' W 074°01'0 0.1
2017-Sep-17 19:58N 40°45' W 074°01'0 0.1
2017-Sep-17 19:28N 40°45' W 074°01'0 0.0
2017-Sep-17 18:58N 40°45' W 074°01'0 0.0
2017-Sep-17 18:28N 40°45' W 074°01'0 0.0
2017-Sep-17 18:01N 40°45' W 074°01'0 0.0
2017-Sep-17 17:31N 40°45' W 074°01'0 0.0
2017-Sep-17 16:58N 40°45' W 074°01'0 0.0
2017-Sep-17 16:28N 40°45' W 074°01'0 0.0
2017-Sep-17 15:58N 40°45' W 074°01'0 0.0
2017-Sep-17 15:28N 40°45' W 074°01'0 0.0
2017-Sep-17 14:58N 40°45' W 074°01'0 0.0
2017-Sep-17 14:28N 40°45' W 074°01'0 0.0
2017-Sep-17 14:01N 40°45' W 074°01'0 0.0
2017-Sep-17 13:28N 40°45' W 074°01'0 0.0
2017-Sep-17 12:58N 40°45' W 074°01'0 0.0
2017-Sep-17 12:28N 40°45' W 074°01'0 0.0
2017-Sep-17 11:58N 40°45' W 074°01'0 0.0
2017-Sep-17 11:28N 40°45' W 074°01'0 0.0
2017-Sep-17 10:58N 40°45' W 074°01'0 0.0
2017-Sep-17 10:28N 40°45' W 074°01'0 0.0
2017-Sep-17 09:58N 40°45' W 074°01'0 0.0
2017-Sep-17 09:28N 40°45' W 074°01'0 0.0
2017-Sep-17 08:58N 40°45' W 074°01'0 0.0
2017-Sep-17 08:28N 40°45' W 074°01'0 0.0
2017-Sep-17 07:58N 40°45' W 074°01'0 0.0
2017-Sep-17 07:30N 40°45' W 074°01'0 0.0
2017-Sep-17 07:00N 40°45' W 074°01'0 0.0
2017-Sep-17 06:28N 40°45' W 074°01'0 0.0
2017-Sep-17 06:00N 40°45' W 074°01'0 0.0
2017-Sep-17 05:31N 40°45' W 074°01'0 0.0
2017-Sep-17 04:58N 40°45' W 074°01'0 0.0
2017-Sep-17 04:31N 40°45' W 074°01'0 0.0
2017-Sep-17 03:58N 40°45' W 074°01'0 0.0
2017-Sep-17 03:28N 40°45' W 074°01'0 0.0
2017-Sep-17 02:58N 40°45' W 074°01'0 0.0
2017-Sep-17 02:28N 40°45' W 074°01'0 0.0
2017-Sep-17 01:58N 40°45' W 074°01'0 0.0
2017-Sep-17 01:28N 40°45' W 074°01'0 0.0
2017-Sep-17 01:00N 40°45' W 074°01'0 0.0
2017-Sep-17 00:30N 40°45' W 074°01'0 0.1
2017-Sep-17 00:01N 40°45' W 074°01'0 0.1
2017-Sep-16 23:31N 40°45' W 074°01'0 0.0
2017-Sep-16 23:00N 40°45' W 074°01'0 0.4
2017-Sep-16 22:30N 40°45' W 074°01'0 0.4
2017-Sep-16 22:00N 40°45' W 074°01'0 0.0
2017-Sep-16 21:30N 40°45' W 074°01'0 0.0
2017-Sep-16 21:00N 40°45' W 074°01'0 0.0
2017-Sep-16 20:30N 40°45' W 074°01'0 0.0
2017-Sep-16 20:01N 40°45' W 074°01'0 0.0
2017-Sep-16 19:30N 40°45' W 074°01'0 0.0
2017-Sep-16 19:01N 40°45' W 074°01'0 0.0
2017-Sep-16 18:31N 40°45' W 074°01'0 0.0
2017-Sep-16 18:00N 40°45' W 074°01'0 0.0
2017-Sep-16 17:30N 40°45' W 074°01'0 0.0
2017-Sep-16 17:00N 40°45' W 074°01'0 0.0
2017-Sep-16 16:30N 40°45' W 074°01'0 0.1
2017-Sep-16 16:00N 40°45' W 074°01'0 0.1
2017-Sep-16 15:30N 40°45' W 074°01'0 0.0
2017-Sep-16 15:00N 40°45' W 074°01'0 0.0
2017-Sep-16 14:30N 40°45' W 074°01'0 0.0
2017-Sep-16 14:00N 40°45' W 074°01'0 0.0
2017-Sep-16 13:30N 40°45' W 074°01'0 0.0
2017-Sep-16 13:01N 40°45' W 074°01'0 0.0
2017-Sep-16 12:30N 40°45' W 074°01'0 0.0
2017-Sep-16 12:00N 40°45' W 074°01'0 0.0
2017-Sep-16 11:30N 40°45' W 074°01'0 0.0
2017-Sep-16 11:00N 40°45' W 074°01'0 0.0
2017-Sep-16 10:31N 40°45' W 074°01'0 0.0
2017-Sep-16 10:00N 40°45' W 074°01'0 0.0
2017-Sep-16 09:30N 40°45' W 074°01'0 0.0
2017-Sep-16 09:00N 40°45' W 074°01'0 0.0
2017-Sep-16 08:30N 40°45' W 074°01'0 0.0
2017-Sep-16 08:00N 40°45' W 074°01'0 0.0
2017-Sep-16 07:30N 40°45' W 074°01'0 0.0
2017-Sep-16 07:00N 40°45' W 074°01'0 0.0
2017-Sep-16 06:30N 40°45' W 074°01'0 0.0
2017-Sep-16 06:00N 40°45' W 074°01'0 0.0
2017-Sep-16 05:30N 40°45' W 074°01'0 0.0
2017-Sep-16 05:00N 40°45' W 074°01'0 0.0
2017-Sep-16 04:30N 40°45' W 074°01'0 0.0
2017-Sep-16 04:00N 40°45' W 074°01'0 0.0
2017-Sep-16 03:30N 40°45' W 074°01'0 0.0
2017-Sep-16 03:00N 40°45' W 074°01'0 0.0
2017-Sep-16 02:30N 40°45' W 074°01'0 0.0
2017-Sep-16 02:00N 40°45' W 074°01'0 0.0
2017-Sep-16 01:30N 40°45' W 074°01'0 0.0
2017-Sep-16 01:00N 40°45' W 074°01'0 0.0
2017-Sep-16 00:30N 40°45' W 074°01'0 0.0
2017-Sep-16 00:00N 40°45' W 074°01'0 0.0
2017-Sep-15 23:30N 40°45' W 074°01'0 0.0
2017-Sep-15 23:00N 40°45' W 074°01'0 0.1
2017-Sep-15 22:30N 40°45' W 074°01'0 0.1
2017-Sep-15 22:00N 40°45' W 074°01'0 0.0
2017-Sep-15 21:30N 40°45' W 074°01'0 0.0
2017-Sep-15 21:00N 40°45' W 074°01'0 0.0
2017-Sep-15 20:30N 40°45' W 074°01'0 0.0
2017-Sep-15 20:00N 40°45' W 074°01'0 0.0
2017-Sep-15 19:30N 40°45' W 074°01'0 0.0
2017-Sep-15 19:00N 40°45' W 074°01'0 0.0
2017-Sep-15 18:30N 40°45' W 074°01'0 0.1
2017-Sep-15 18:00N 40°45' W 074°01'0 0.1
2017-Sep-15 17:30N 40°45' W 074°01'0 0.0
2017-Sep-15 17:00N 40°45' W 074°01'0 0.0
2017-Sep-15 16:30N 40°45' W 074°01'0 0.1
2017-Sep-15 16:00N 40°45' W 074°01'0 0.1
2017-Sep-15 15:30N 40°45' W 074°01'0 0.0
2017-Sep-15 15:00N 40°45' W 074°01'0 0.0
2017-Sep-15 14:30N 40°45' W 074°01'0 0.0
2017-Sep-15 14:00N 40°45' W 074°01'0 0.0
2017-Sep-15 13:30N 40°45' W 074°01'0 0.0
2017-Sep-15 13:00N 40°45' W 074°01'0 0.0
2017-Sep-15 12:30N 40°45' W 074°01'0 0.0
2017-Sep-15 12:00N 40°45' W 074°01'0 0.0
2017-Sep-15 11:30N 40°45' W 074°01'0 0.0
2017-Sep-15 11:00N 40°45' W 074°01'0 0.0
2017-Sep-15 10:30N 40°45' W 074°01'0 0.0
2017-Sep-15 10:00N 40°45' W 074°01'0 0.0
2017-Sep-15 09:30N 40°45' W 074°01'0 0.0
2017-Sep-15 09:00N 40°45' W 074°01'0 0.0
2017-Sep-15 08:30N 40°45' W 074°01'0 0.0
2017-Sep-15 08:00N 40°45' W 074°01'0 0.0
2017-Sep-15 07:30N 40°45' W 074°01'0 0.0
2017-Sep-15 07:00N 40°45' W 074°01'0 0.0
2017-Sep-15 06:30N 40°45' W 074°01'0 0.0
2017-Sep-15 06:00N 40°45' W 074°01'0 0.0
2017-Sep-15 05:30N 40°45' W 074°01'0 0.0
2017-Sep-15 05:00N 40°45' W 074°01'0 0.0
2017-Sep-15 04:30N 40°45' W 074°01'0 0.0
2017-Sep-15 04:00N 40°45' W 074°01'0 0.0
2017-Sep-15 03:30N 40°45' W 074°01'0 0.0
2017-Sep-15 03:00N 40°45' W 074°01'0 0.0
2017-Sep-15 02:30N 40°45' W 074°01'0 0.0
2017-Sep-15 02:00N 40°45' W 074°01'0 0.0
2017-Sep-15 01:30N 40°45' W 074°01'0 0.0
2017-Sep-15 01:00N 40°45' W 074°01'0 0.0
2017-Sep-15 00:30N 40°45' W 074°01'0 0.1
2017-Sep-15 00:00N 40°45' W 074°01'4 7.8
2017-Sep-14 23:30N 40°41' W 074°02'4 7.8
2017-Sep-14 23:00N 40°45' W 074°01'1 2.1
2017-Sep-14 22:30N 40°46' W 074°00'1 2.0
2017-Sep-14 22:00N 40°45' W 074°01'0 0.0
2017-Sep-14 21:30N 40°45' W 074°01'0 0.0
2017-Sep-14 21:01N 40°45' W 074°01'0 0.0
2017-Sep-14 20:30N 40°45' W 074°01'0 0.0
2017-Sep-14 20:00N 40°45' W 074°01'0 0.0
2017-Sep-14 19:30N 40°45' W 074°01'0 0.0
2017-Sep-14 19:00N 40°45' W 074°01'0 0.0
2017-Sep-14 18:30N 40°45' W 074°01'0 0.0
2017-Sep-14 18:00N 40°45' W 074°01'0 0.0
2017-Sep-14 17:24N 40°45' W 074°01'0 0.0
2017-Sep-14 17:00N 40°45' W 074°01'0 0.0
2017-Sep-14 16:30N 40°45' W 074°01'0 0.0
2017-Sep-14 16:00N 40°45' W 074°01'0 0.0
2017-Sep-14 15:30N 40°45' W 074°01'0 0.0
2017-Sep-14 15:00N 40°45' W 074°01'0 0.0
2017-Sep-14 14:30N 40°45' W 074°01'0 0.0
2017-Sep-14 14:00N 40°45' W 074°01'0 0.0
2017-Sep-14 13:30N 40°45' W 074°01'0 0.0
2017-Sep-14 13:00N 40°45' W 074°01'0 0.0
2017-Sep-14 12:30N 40°45' W 074°01'0 0.0
2017-Sep-14 12:00N 40°45' W 074°01'0 0.0
2017-Sep-14 11:30N 40°45' W 074°01'0 0.0
2017-Sep-14 11:00N 40°45' W 074°01'0 0.0
2017-Sep-14 10:30N 40°45' W 074°01'0 0.0
2017-Sep-14 10:00N 40°45' W 074°01'0 0.0
2017-Sep-14 09:29N 40°45' W 074°01'0 0.0
2017-Sep-14 08:59N 40°45' W 074°01'0 0.0
2017-Sep-14 08:29N 40°45' W 074°01'0 0.0
2017-Sep-14 07:59N 40°45' W 074°01'0 0.0
2017-Sep-14 07:29N 40°45' W 074°01'0 0.0
2017-Sep-14 06:59N 40°45' W 074°01'0 0.0
2017-Sep-14 06:29N 40°45' W 074°01'0 0.0
2017-Sep-14 05:59N 40°45' W 074°01'0 0.0
2017-Sep-14 05:29N 40°45' W 074°01'0 0.0
2017-Sep-14 04:59N 40°45' W 074°01'0 0.0
2017-Sep-14 04:29N 40°45' W 074°01'0 0.1
2017-Sep-14 03:59N 40°45' W 074°01'0 0.0
2017-Sep-14 03:23N 40°45' W 074°01'0 0.0
2017-Sep-14 02:59N 40°45' W 074°01'0 0.0
2017-Sep-14 02:29N 40°45' W 074°01'0 0.0
2017-Sep-14 01:59N 40°45' W 074°01'0 0.0
2017-Sep-14 01:29N 40°45' W 074°01'0 0.0
2017-Sep-14 00:59N 40°45' W 074°01'0 0.0
2017-Sep-14 00:29N 40°45' W 074°01'0 0.0
2017-Sep-14 00:00N 40°45' W 074°01'3 5.8
2017-Sep-13 23:30N 40°42' W 074°01'1 1.9
2017-Sep-13 23:00N 40°43' W 074°02'3 6.1
2017-Sep-13 22:30N 40°46' W 074°00'1 1.7
2017-Sep-13 21:58N 40°45' W 074°01'0 0.0
2017-Sep-13 21:28N 40°45' W 074°01'0 0.0
2017-Sep-13 20:58N 40°45' W 074°01'0 0.0
2017-Sep-13 20:28N 40°45' W 074°01'0 0.0
2017-Sep-13 20:00N 40°45' W 074°01'0 0.0
2017-Sep-13 19:30N 40°45' W 074°01'0 0.0
2017-Sep-13 18:54N 40°45' W 074°01'0 0.0
2017-Sep-13 18:30N 40°45' W 074°01'0 0.0
2017-Sep-13 18:00N 40°45' W 074°01'0 0.0
2017-Sep-13 17:30N 40°45' W 074°01'0 0.0
2017-Sep-13 17:00N 40°45' W 074°01'0 0.0
2017-Sep-13 16:30N 40°45' W 074°01'0 0.0
2017-Sep-13 16:00N 40°45' W 074°01'0 0.0
2017-Sep-13 15:30N 40°45' W 074°01'0 0.0
2017-Sep-13 15:00N 40°45' W 074°01'0 0.0
2017-Sep-13 14:30N 40°45' W 074°01'0 0.0
2017-Sep-13 14:00N 40°45' W 074°01'0 0.0
2017-Sep-13 13:30N 40°45' W 074°01'0 0.0
2017-Sep-13 13:00N 40°45' W 074°01'0 0.0
2017-Sep-13 12:30N 40°45' W 074°01'0 0.0
2017-Sep-13 12:00N 40°45' W 074°01'0 0.0
2017-Sep-13 11:30N 40°45' W 074°01'0 0.0
2017-Sep-13 11:00N 40°45' W 074°01'0 0.0
2017-Sep-13 10:30N 40°45' W 074°01'0 0.0
2017-Sep-13 10:00N 40°45' W 074°01'0 0.0
2017-Sep-13 09:30N 40°45' W 074°01'0 0.0
2017-Sep-13 09:00N 40°45' W 074°01'0 0.0
2017-Sep-13 08:30N 40°45' W 074°01'0 0.0
2017-Sep-13 08:00N 40°45' W 074°01'0 0.0
2017-Sep-13 07:30N 40°45' W 074°01'0 0.0
2017-Sep-13 07:00N 40°45' W 074°01'0 0.0
2017-Sep-13 06:30N 40°45' W 074°01'0 0.0
2017-Sep-13 06:00N 40°45' W 074°01'0 0.0
2017-Sep-13 05:30N 40°45' W 074°01'0 0.0
2017-Sep-13 05:00N 40°45' W 074°01'0 0.0
2017-Sep-13 04:30N 40°45' W 074°01'0 0.0
2017-Sep-13 04:00N 40°45' W 074°01'0 0.0
2017-Sep-13 03:30N 40°45' W 074°01'0 0.0
2017-Sep-13 03:00N 40°45' W 074°01'0 0.0
2017-Sep-13 02:30N 40°45' W 074°01'0 0.0
2017-Sep-13 02:00N 40°45' W 074°01'0 0.0
2017-Sep-13 01:30N 40°45' W 074°01'0 0.0
2017-Sep-13 01:00N 40°45' W 074°01'0 0.0
2017-Sep-13 00:30N 40°45' W 074°01'0 0.0
2017-Sep-13 00:00N 40°45' W 074°01'0 0.4
2017-Sep-12 23:30N 40°45' W 074°01'3 7.0
2017-Sep-12 23:01N 40°41' W 074°02'3 5.6
2017-Sep-12 22:31N 40°44' W 074°01'1 1.8
2017-Sep-12 21:59N 40°45' W 074°01'0 0.0
2017-Sep-12 21:29N 40°45' W 074°01'0 0.1
2017-Sep-12 20:58N 40°45' W 074°01'0 0.1
2017-Sep-12 20:28N 40°45' W 074°01'0 0.0
2017-Sep-12 19:59N 40°45' W 074°01'0 0.0
2017-Sep-12 19:28N 40°45' W 074°01'0 0.0
2017-Sep-12 18:55N 40°45' W 074°01'0 0.0
2017-Sep-12 18:29N 40°45' W 074°01'0 0.0
2017-Sep-12 17:58N 40°45' W 074°01'0 0.0
2017-Sep-12 17:28N 40°45' W 074°01'0 0.0
2017-Sep-12 16:58N 40°45' W 074°01'0 0.1
2017-Sep-12 16:28N 40°45' W 074°01'0 0.1
2017-Sep-12 15:58N 40°45' W 074°01'0 0.0
2017-Sep-12 15:28N 40°45' W 074°01'0 0.0
2017-Sep-12 14:58N 40°45' W 074°01'0 0.0
2017-Sep-12 14:28N 40°45' W 074°01'0 0.0
2017-Sep-12 13:58N 40°45' W 074°01'0 0.0
2017-Sep-12 13:28N 40°45' W 074°01'0 0.0
2017-Sep-12 12:58N 40°45' W 074°01'0 0.0
2017-Sep-12 12:28N 40°45' W 074°01'0 0.0
2017-Sep-12 11:58N 40°45' W 074°01'0 0.0
2017-Sep-12 11:28N 40°45' W 074°01'0 0.0
2017-Sep-12 10:58N 40°45' W 074°01'0 0.0
2017-Sep-12 10:28N 40°45' W 074°01'0 0.0
2017-Sep-12 09:58N 40°45' W 074°01'0 0.0
2017-Sep-12 09:28N 40°45' W 074°01'0 0.0
2017-Sep-12 08:58N 40°45' W 074°01'0 0.0
2017-Sep-12 08:28N 40°45' W 074°01'0 0.0
2017-Sep-12 07:58N 40°45' W 074°01'0 0.0
2017-Sep-12 07:28N 40°45' W 074°01'0 0.0
2017-Sep-12 06:58N 40°45' W 074°01'0 0.0
2017-Sep-12 06:28N 40°45' W 074°01'0 0.0
2017-Sep-12 05:58N 40°45' W 074°01'0 0.0
2017-Sep-12 05:28N 40°45' W 074°01'0 0.0
2017-Sep-12 04:58N 40°45' W 074°01'0 0.0
2017-Sep-12 04:28N 40°45' W 074°01'0 0.0
2017-Sep-12 03:58N 40°45' W 074°01'0 0.0
2017-Sep-12 03:28N 40°45' W 074°01'0 0.0
2017-Sep-12 02:58N 40°45' W 074°01'0 0.0
2017-Sep-12 02:28N 40°45' W 074°01'0 0.0
2017-Sep-12 01:58N 40°45' W 074°01'0 0.0
2017-Sep-12 01:28N 40°45' W 074°01'0 0.0
2017-Sep-12 00:58N 40°45' W 074°01'0 0.0
2017-Sep-12 00:28N 40°45' W 074°01'0 0.0
2017-Sep-11 23:58N 40°45' W 074°01'0 0.0
2017-Sep-11 23:28N 40°45' W 074°01'0 0.0
2017-Sep-11 22:58N 40°45' W 074°01'0 0.0
2017-Sep-11 22:28N 40°45' W 074°01'0 0.0
2017-Sep-11 21:58N 40°45' W 074°01'0 0.0
2017-Sep-11 21:28N 40°45' W 074°01'0 0.1
2017-Sep-11 20:58N 40°45' W 074°01'0 0.1
2017-Sep-11 20:28N 40°45' W 074°01'0 0.0
2017-Sep-11 19:58N 40°45' W 074°01'0 0.0
2017-Sep-11 19:28N 40°45' W 074°01'0 0.1
2017-Sep-11 18:58N 40°45' W 074°01'0 0.0
2017-Sep-11 18:28N 40°45' W 074°01'0 0.0
2017-Sep-11 17:58N 40°45' W 074°01'0 0.0
2017-Sep-11 17:28N 40°45' W 074°01'0 0.0
2017-Sep-11 16:52N 40°45' W 074°01'0 0.0
2017-Sep-11 16:28N 40°45' W 074°01'0 0.0
2017-Sep-11 15:58N 40°45' W 074°01'0 0.0
2017-Sep-11 15:28N 40°45' W 074°01'0 0.0
2017-Sep-11 14:52N 40°45' W 074°01'0 0.0
2017-Sep-11 14:10N 40°45' W 074°01'0 0.0
2017-Sep-11 13:58N 40°45' W 074°01'0 0.0
2017-Sep-11 12:55N 40°45' W 074°01'0 0.0
2017-Sep-11 12:28N 40°45' W 074°01'0 0.0
2017-Sep-11 11:58N 40°45' W 074°01'0 0.0
2017-Sep-11 11:28N 40°45' W 074°01'0 0.0
2017-Sep-11 10:46N 40°45' W 074°01'0 0.0
2017-Sep-11 10:28N 40°45' W 074°01'0 0.0
2017-Sep-11 09:58N 40°45' W 074°01'0 0.0
2017-Sep-11 09:28N 40°45' W 074°01'0 0.0
2017-Sep-11 08:58N 40°45' W 074°01'0 0.0
2017-Sep-11 08:28N 40°45' W 074°01'0 0.0
2017-Sep-11 07:58N 40°45' W 074°01'0 0.0
2017-Sep-11 07:28N 40°45' W 074°01'0 0.0
2017-Sep-11 06:52N 40°45' W 074°01'0 0.0
2017-Sep-11 06:28N 40°45' W 074°01'0 0.0
2017-Sep-11 05:58N 40°45' W 074°01'0 0.0
2017-Sep-11 05:28N 40°45' W 074°01'0 0.0
2017-Sep-11 04:58N 40°45' W 074°01'0 0.0
2017-Sep-11 04:28N 40°45' W 074°01'0 0.0
2017-Sep-11 03:58N 40°45' W 074°01'0 0.0
2017-Sep-11 03:28N 40°45' W 074°01'0 0.0
2017-Sep-11 02:58N 40°45' W 074°01'0 0.0
2017-Sep-11 02:28N 40°45' W 074°01'0 0.0
2017-Sep-11 01:58N 40°45' W 074°01'0 0.1
2017-Sep-11 01:30N 40°45' W 074°01'0 0.0
2017-Sep-11 01:00N 40°45' W 074°01'0 0.0
2017-Sep-11 00:30N 40°45' W 074°01'0 0.0
2017-Sep-11 00:00N 40°45' W 074°01'0 0.0
2017-Sep-10 23:30N 40°45' W 074°01'0 0.0
2017-Sep-10 23:00N 40°45' W 074°01'0 0.1
2017-Sep-10 22:30N 40°45' W 074°01'0 0.1
2017-Sep-10 22:00N 40°45' W 074°01'0 0.0
2017-Sep-10 21:30N 40°45' W 074°01'0 0.0
2017-Sep-10 21:00N 40°45' W 074°01'0 0.0
2017-Sep-10 20:30N 40°45' W 074°01'0 0.0
2017-Sep-10 20:00N 40°45' W 074°01'0 0.0
2017-Sep-10 19:30N 40°45' W 074°01'0 0.0
2017-Sep-10 19:00N 40°45' W 074°01'0 0.0
2017-Sep-10 18:30N 40°45' W 074°01'0 0.0
2017-Sep-10 18:00N 40°45' W 074°01'0 0.0
2017-Sep-10 17:30N 40°45' W 074°01'0 0.0
2017-Sep-10 17:00N 40°45' W 074°01'0 0.0
2017-Sep-10 16:30N 40°45' W 074°01'0 0.0
2017-Sep-10 16:00N 40°45' W 074°01'0 0.0
2017-Sep-10 15:30N 40°45' W 074°01'0 0.0
2017-Sep-10 15:00N 40°45' W 074°01'0 0.0
2017-Sep-10 14:00N 40°45' W 074°01'0 0.0
2017-Sep-10 13:30N 40°45' W 074°01'0 0.0
2017-Sep-10 13:00N 40°45' W 074°01'0 0.0
2017-Sep-10 12:30N 40°45' W 074°01'0 0.0
2017-Sep-10 12:00N 40°45' W 074°01'0 0.0
2017-Sep-10 11:30N 40°45' W 074°01'0 0.0
2017-Sep-10 11:00N 40°45' W 074°01'0 0.0
2017-Sep-10 10:30N 40°45' W 074°01'0 0.0
2017-Sep-10 10:00N 40°45' W 074°01'0 0.0
2017-Sep-10 09:30N 40°45' W 074°01'0 0.0
2017-Sep-10 09:00N 40°45' W 074°01'0 0.0
2017-Sep-10 08:30N 40°45' W 074°01'0 0.0
2017-Sep-10 08:00N 40°45' W 074°01'0 0.0
2017-Sep-10 07:30N 40°45' W 074°01'0 0.0
2017-Sep-10 07:00N 40°45' W 074°01'0 0.0
2017-Sep-10 06:30N 40°45' W 074°01'0 0.0
2017-Sep-10 06:00N 40°45' W 074°01'0 0.0
2017-Sep-10 05:30N 40°45' W 074°01'0 0.0
2017-Sep-10 05:00N 40°45' W 074°01'0 0.1
2017-Sep-10 04:30N 40°45' W 074°01'0 0.1
2017-Sep-10 04:00N 40°45' W 074°01'0 0.0
2017-Sep-10 03:30N 40°45' W 074°01'0 0.0
2017-Sep-10 03:00N 40°45' W 074°01'0 0.0
2017-Sep-10 02:30N 40°45' W 074°01'0 0.0
2017-Sep-10 02:00N 40°45' W 074°01'0 0.0
2017-Sep-10 01:30N 40°45' W 074°01'0 0.0
2017-Sep-10 01:00N 40°45' W 074°01'0 0.0
2017-Sep-10 00:30N 40°45' W 074°01'0 0.0
2017-Sep-10 00:00N 40°45' W 074°01'0 0.0
2017-Sep-09 23:30N 40°45' W 074°01'0 0.0
2017-Sep-09 23:00N 40°45' W 074°01'0 0.0
2017-Sep-09 22:30N 40°45' W 074°01'0 0.0
2017-Sep-09 22:00N 40°45' W 074°01'0 0.0
2017-Sep-09 21:30N 40°45' W 074°01'0 0.0
2017-Sep-09 21:00N 40°45' W 074°01'0 0.0
2017-Sep-09 20:30N 40°45' W 074°01'0 0.0
2017-Sep-09 19:59N 40°45' W 074°01'0 0.0
2017-Sep-09 19:29N 40°45' W 074°01'0 0.0
2017-Sep-09 18:59N 40°45' W 074°01'0 0.0
2017-Sep-09 18:29N 40°45' W 074°01'0 0.0
2017-Sep-09 17:59N 40°45' W 074°01'0 0.0
2017-Sep-09 17:29N 40°45' W 074°01'0 0.0
2017-Sep-09 16:59N 40°45' W 074°01'0 0.0
2017-Sep-09 16:29N 40°45' W 074°01'0 0.0
2017-Sep-09 15:56N 40°45' W 074°01'0 0.0
2017-Sep-09 15:29N 40°45' W 074°01'0 0.0
2017-Sep-09 14:59N 40°45' W 074°01'0 0.0
2017-Sep-09 14:29N 40°45' W 074°01'0 0.0
2017-Sep-09 13:59N 40°45' W 074°01'0 0.0
2017-Sep-09 13:29N 40°45' W 074°01'0 0.0
2017-Sep-09 12:59N 40°45' W 074°01'0 0.0
2017-Sep-09 12:29N 40°45' W 074°01'0 0.0
2017-Sep-09 11:59N 40°45' W 074°01'0 0.0
2017-Sep-09 11:29N 40°45' W 074°01'0 0.0
2017-Sep-09 10:59N 40°45' W 074°01'0 0.0
2017-Sep-09 10:29N 40°45' W 074°01'0 0.0
2017-Sep-09 09:59N 40°45' W 074°01'0 0.0
2017-Sep-09 09:29N 40°45' W 074°01'0 0.0
2017-Sep-09 08:59N 40°45' W 074°01'0 0.0
2017-Sep-09 08:29N 40°45' W 074°01'0 0.0
2017-Sep-09 07:59N 40°45' W 074°01'0 0.0
2017-Sep-09 07:29N 40°45' W 074°01'0 0.0
2017-Sep-09 06:59N 40°45' W 074°01'0 0.0
2017-Sep-09 06:29N 40°45' W 074°01'0 0.0
2017-Sep-09 05:59N 40°45' W 074°01'0 0.0
2017-Sep-09 05:29N 40°45' W 074°01'0 0.0
2017-Sep-09 04:59N 40°45' W 074°01'0 0.0
2017-Sep-09 04:29N 40°45' W 074°01'0 0.0
2017-Sep-09 03:59N 40°45' W 074°01'0 0.0
2017-Sep-09 03:29N 40°45' W 074°01'0 0.0
2017-Sep-09 02:59N 40°45' W 074°01'0 0.0
2017-Sep-09 02:29N 40°45' W 074°01'0 0.0
2017-Sep-09 01:59N 40°45' W 074°01'0 0.0
2017-Sep-09 01:29N 40°45' W 074°01'0 0.0
2017-Sep-09 00:59N 40°45' W 074°01'0 0.0
2017-Sep-09 00:29N 40°45' W 074°01'0 0.0
2017-Sep-08 23:59N 40°45' W 074°01'0 0.0
2017-Sep-08 23:29N 40°45' W 074°01'0 0.3
2017-Sep-08 22:59N 40°45' W 074°01'0 0.3
2017-Sep-08 22:29N 40°45' W 074°01'  

Dump ship's entire track history